sensor_id;sensor_type;location;lat;lon;timestamp;P1;durP1;ratioP1;P2;durP2;ratioP2
2728;SDS011;1372;47.956;7.830;2022-11-15T00:01:54;2.73;;;1.80;;
2728;SDS011;1372;47.956;7.830;2022-11-15T00:04:24;1.90;;;1.80;;
2728;SDS011;1372;47.956;7.830;2022-11-15T00:06:54;3.03;;;2.20;;
2728;SDS011;1372;47.956;7.830;2022-11-15T00:09:24;2.00;;;1.80;;
2728;SDS011;1372;47.956;7.830;2022-11-15T00:11:53;2.43;;;2.23;;
2728;SDS011;1372;47.956;7.830;2022-11-15T00:14:27;2.80;;;1.80;;
2728;SDS011;1372;47.956;7.830;2022-11-15T00:16:59;1.80;;;1.70;;
2728;SDS011;1372;47.956;7.830;2022-11-15T00:19:32;1.30;;;1.30;;
2728;SDS011;1372;47.956;7.830;2022-11-15T00:22:02;1.60;;;1.47;;
2728;SDS011;1372;47.956;7.830;2022-11-15T00:24:32;1.70;;;1.60;;
2728;SDS011;1372;47.956;7.830;2022-11-15T00:27:02;2.23;;;2.10;;
2728;SDS011;1372;47.956;7.830;2022-11-15T00:29:35;2.13;;;1.53;;
2728;SDS011;1372;47.956;7.830;2022-11-15T00:32:05;2.03;;;1.83;;
2728;SDS011;1372;47.956;7.830;2022-11-15T00:34:36;1.80;;;1.70;;
2728;SDS011;1372;47.956;7.830;2022-11-15T00:37:05;2.20;;;1.70;;
2728;SDS011;1372;47.956;7.830;2022-11-15T00:39:36;3.67;;;1.37;;
2728;SDS011;1372;47.956;7.830;2022-11-15T00:42:06;1.70;;;1.60;;
2728;SDS011;1372;47.956;7.830;2022-11-15T00:44:37;2.10;;;1.90;;
2728;SDS011;1372;47.956;7.830;2022-11-15T00:47:07;2.33;;;2.13;;
2728;SDS011;1372;47.956;7.830;2022-11-15T00:49:36;2.03;;;1.83;;
2728;SDS011;1372;47.956;7.830;2022-11-15T00:52:06;2.73;;;2.17;;
2728;SDS011;1372;47.956;7.830;2022-11-15T00:54:36;2.77;;;1.80;;
2728;SDS011;1372;47.956;7.830;2022-11-15T00:57:06;1.80;;;1.70;;
2728;SDS011;1372;47.956;7.830;2022-11-15T00:59:38;1.50;;;1.40;;
2728;SDS011;1372;47.956;7.830;2022-11-15T01:02:08;1.30;;;1.20;;
2728;SDS011;1372;47.956;7.830;2022-11-15T01:04:38;1.53;;;1.43;;
2728;SDS011;1372;47.956;7.830;2022-11-15T01:07:08;0.80;;;0.80;;
2728;SDS011;1372;47.956;7.830;2022-11-15T01:09:38;3.03;;;1.77;;
2728;SDS011;1372;47.956;7.830;2022-11-15T01:12:08;2.30;;;1.20;;
2728;SDS011;1372;47.956;7.830;2022-11-15T01:14:39;3.40;;;1.20;;
2728;SDS011;1372;47.956;7.830;2022-11-15T01:17:09;1.37;;;1.23;;
2728;SDS011;1372;47.956;7.830;2022-11-15T01:19:39;1.53;;;1.40;;
2728;SDS011;1372;47.956;7.830;2022-11-15T01:22:09;1.73;;;1.13;;
2728;SDS011;1372;47.956;7.830;2022-11-15T01:24:39;2.30;;;1.30;;
2728;SDS011;1372;47.956;7.830;2022-11-15T01:27:09;1.40;;;1.30;;
2728;SDS011;1372;47.956;7.830;2022-11-15T01:29:41;1.20;;;1.10;;
2728;SDS011;1372;47.956;7.830;2022-11-15T01:32:11;1.77;;;1.37;;
2728;SDS011;1372;47.956;7.830;2022-11-15T01:34:41;1.60;;;1.50;;
2728;SDS011;1372;47.956;7.830;2022-11-15T01:37:11;1.10;;;1.00;;
2728;SDS011;1372;47.956;7.830;2022-11-15T01:39:41;1.20;;;1.10;;
2728;SDS011;1372;47.956;7.830;2022-11-15T01:42:12;1.77;;;1.20;;
2728;SDS011;1372;47.956;7.830;2022-11-15T01:44:45;1.30;;;1.20;;
2728;SDS011;1372;47.956;7.830;2022-11-15T01:47:19;1.63;;;1.17;;
2728;SDS011;1372;47.956;7.830;2022-11-15T01:49:54;1.10;;;1.00;;
2728;SDS011;1372;47.956;7.830;2022-11-15T01:52:31;1.10;;;1.00;;
2728;SDS011;1372;47.956;7.830;2022-11-15T01:55:05;1.57;;;1.47;;
2728;SDS011;1372;47.956;7.830;2022-11-15T01:57:39;1.40;;;1.30;;
2728;SDS011;1372;47.956;7.830;2022-11-15T02:02:46;3.50;;;1.53;;
2728;SDS011;1372;47.956;7.830;2022-11-15T02:05:16;2.17;;;1.30;;
2728;SDS011;1372;47.956;7.830;2022-11-15T02:07:46;3.70;;;1.30;;
2728;SDS011;1372;47.956;7.830;2022-11-15T02:10:18;1.90;;;1.47;;
2728;SDS011;1372;47.956;7.830;2022-11-15T02:12:52;1.93;;;1.20;;
2728;SDS011;1372;47.956;7.830;2022-11-15T02:15:24;2.47;;;1.20;;
2728;SDS011;1372;47.956;7.830;2022-11-15T02:18:11;1.67;;;1.00;;
2728;SDS011;1372;47.956;7.830;2022-11-15T02:20:52;0.90;;;0.90;;
2728;SDS011;1372;47.956;7.830;2022-11-15T02:23:48;1.20;;;0.90;;
2728;SDS011;1372;47.956;7.830;2022-11-15T02:30:47;1.87;;;0.90;;
2728;SDS011;1372;47.956;7.830;2022-11-15T02:33:28;1.83;;;0.87;;
2728;SDS011;1372;47.956;7.830;2022-11-15T02:36:06;0.80;;;0.80;;
2728;SDS011;1372;47.956;7.830;2022-11-15T02:38:43;1.30;;;1.20;;
2728;SDS011;1372;47.956;7.830;2022-11-15T02:41:23;1.20;;;1.10;;
2728;SDS011;1372;47.956;7.830;2022-11-15T02:44:01;1.50;;;1.20;;
2728;SDS011;1372;47.956;7.830;2022-11-15T02:46:37;1.20;;;1.07;;
2728;SDS011;1372;47.956;7.830;2022-11-15T02:49:27;3.43;;;1.23;;
2728;SDS011;1372;47.956;7.830;2022-11-15T02:52:01;0.97;;;0.97;;
2728;SDS011;1372;47.956;7.830;2022-11-15T02:54:32;1.60;;;0.80;;
2728;SDS011;1372;47.956;7.830;2022-11-15T02:57:03;1.43;;;1.33;;
2728;SDS011;1372;47.956;7.830;2022-11-15T03:02:42;0.83;;;0.77;;
2728;SDS011;1372;47.956;7.830;2022-11-15T03:05:30;0.70;;;0.70;;
2728;SDS011;1372;47.956;7.830;2022-11-15T03:08:08;1.53;;;1.27;;
2728;SDS011;1372;47.956;7.830;2022-11-15T03:10:50;1.13;;;0.90;;
2728;SDS011;1372;47.956;7.830;2022-11-15T03:13:33;1.53;;;0.80;;
2728;SDS011;1372;47.956;7.830;2022-11-15T03:16:11;2.10;;;1.93;;
2728;SDS011;1372;47.956;7.830;2022-11-15T03:18:51;1.73;;;1.33;;
2728;SDS011;1372;47.956;7.830;2022-11-15T03:21:26;1.10;;;0.80;;
2728;SDS011;1372;47.956;7.830;2022-11-15T03:24:00;1.10;;;0.90;;
2728;SDS011;1372;47.956;7.830;2022-11-15T03:26:36;1.00;;;0.83;;
2728;SDS011;1372;47.956;7.830;2022-11-15T03:29:11;0.70;;;0.70;;
2728;SDS011;1372;47.956;7.830;2022-11-15T03:31:44;1.77;;;1.67;;
2728;SDS011;1372;47.956;7.830;2022-11-15T03:34:22;1.10;;;0.97;;
2728;SDS011;1372;47.956;7.830;2022-11-15T03:37:00;1.10;;;1.00;;
2728;SDS011;1372;47.956;7.830;2022-11-15T03:39:31;1.17;;;1.07;;
2728;SDS011;1372;47.956;7.830;2022-11-15T03:42:04;1.97;;;1.20;;
2728;SDS011;1372;47.956;7.830;2022-11-15T03:44:47;1.50;;;1.20;;
2728;SDS011;1372;47.956;7.830;2022-11-15T03:47:25;1.13;;;1.07;;
2728;SDS011;1372;47.956;7.830;2022-11-15T03:50:02;1.30;;;1.10;;
2728;SDS011;1372;47.956;7.830;2022-11-15T03:52:37;1.27;;;0.77;;
2728;SDS011;1372;47.956;7.830;2022-11-15T03:55:12;1.17;;;1.00;;
2728;SDS011;1372;47.956;7.830;2022-11-15T03:58:05;1.17;;;1.03;;
2728;SDS011;1372;47.956;7.830;2022-11-15T04:00:37;1.67;;;1.10;;
2728;SDS011;1372;47.956;7.830;2022-11-15T04:03:07;2.33;;;1.20;;
2728;SDS011;1372;47.956;7.830;2022-11-15T04:05:38;0.80;;;0.80;;
2728;SDS011;1372;47.956;7.830;2022-11-15T04:08:11;3.23;;;1.17;;
2728;SDS011;1372;47.956;7.830;2022-11-15T04:10:41;1.30;;;0.90;;
2728;SDS011;1372;47.956;7.830;2022-11-15T04:13:11;1.00;;;0.93;;
2728;SDS011;1372;47.956;7.830;2022-11-15T04:15:43;1.20;;;1.10;;
2728;SDS011;1372;47.956;7.830;2022-11-15T04:18:13;1.53;;;1.43;;
2728;SDS011;1372;47.956;7.830;2022-11-15T04:20:44;4.40;;;2.13;;
2728;SDS011;1372;47.956;7.830;2022-11-15T04:23:31;2.20;;;2.00;;
2728;SDS011;1372;47.956;7.830;2022-11-15T04:26:30;2.47;;;2.23;;
2728;SDS011;1372;47.956;7.830;2022-11-15T04:29:00;3.17;;;2.80;;
2728;SDS011;1372;47.956;7.830;2022-11-15T04:31:47;2.30;;;2.07;;
2728;SDS011;1372;47.956;7.830;2022-11-15T04:34:20;2.90;;;2.67;;
2728;SDS011;1372;47.956;7.830;2022-11-15T04:36:55;3.30;;;2.53;;
2728;SDS011;1372;47.956;7.830;2022-11-15T04:39:41;2.77;;;2.57;;
2728;SDS011;1372;47.956;7.830;2022-11-15T04:42:15;2.80;;;2.47;;
2728;SDS011;1372;47.956;7.830;2022-11-15T04:44:47;3.03;;;2.50;;
2728;SDS011;1372;47.956;7.830;2022-11-15T04:47:23;3.63;;;2.93;;
2728;SDS011;1372;47.956;7.830;2022-11-15T04:49:56;2.93;;;2.70;;
2728;SDS011;1372;47.956;7.830;2022-11-15T04:52:27;3.43;;;2.50;;
2728;SDS011;1372;47.956;7.830;2022-11-15T04:54:57;3.73;;;2.53;;
2728;SDS011;1372;47.956;7.830;2022-11-15T04:57:32;2.90;;;2.30;;
2728;SDS011;1372;47.956;7.830;2022-11-15T05:00:03;2.90;;;2.70;;
2728;SDS011;1372;47.956;7.830;2022-11-15T05:02:37;2.60;;;2.20;;
2728;SDS011;1372;47.956;7.830;2022-11-15T05:05:23;2.50;;;2.30;;
2728;SDS011;1372;47.956;7.830;2022-11-15T05:07:54;2.83;;;2.60;;
2728;SDS011;1372;47.956;7.830;2022-11-15T05:10:27;3.00;;;2.80;;
2728;SDS011;1372;47.956;7.830;2022-11-15T05:12:56;3.20;;;2.80;;
2728;SDS011;1372;47.956;7.830;2022-11-15T05:15:25;3.13;;;2.30;;
2728;SDS011;1372;47.956;7.830;2022-11-15T05:17:56;3.23;;;2.60;;
2728;SDS011;1372;47.956;7.830;2022-11-15T05:20:27;3.27;;;2.50;;
2728;SDS011;1372;47.956;7.830;2022-11-15T05:23:01;3.00;;;2.60;;
2728;SDS011;1372;47.956;7.830;2022-11-15T05:25:33;3.10;;;2.80;;
2728;SDS011;1372;47.956;7.830;2022-11-15T05:28:06;3.57;;;3.27;;
2728;SDS011;1372;47.956;7.830;2022-11-15T05:30:40;2.80;;;2.60;;
2728;SDS011;1372;47.956;7.830;2022-11-15T05:33:15;9.20;;;3.17;;
2728;SDS011;1372;47.956;7.830;2022-11-15T05:35:46;3.10;;;2.70;;
2728;SDS011;1372;47.956;7.830;2022-11-15T05:38:27;2.67;;;2.47;;
2728;SDS011;1372;47.956;7.830;2022-11-15T05:41:03;4.43;;;2.83;;
2728;SDS011;1372;47.956;7.830;2022-11-15T05:43:35;4.53;;;2.43;;
2728;SDS011;1372;47.956;7.830;2022-11-15T05:46:09;2.30;;;2.20;;
2728;SDS011;1372;47.956;7.830;2022-11-15T05:48:46;2.50;;;2.30;;
2728;SDS011;1372;47.956;7.830;2022-11-15T05:51:20;2.90;;;2.70;;
2728;SDS011;1372;47.956;7.830;2022-11-15T05:53:55;3.27;;;2.70;;
2728;SDS011;1372;47.956;7.830;2022-11-15T05:56:29;3.13;;;2.93;;
2728;SDS011;1372;47.956;7.830;2022-11-15T05:59:03;3.00;;;2.70;;
2728;SDS011;1372;47.956;7.830;2022-11-15T06:01:37;2.70;;;2.50;;
2728;SDS011;1372;47.956;7.830;2022-11-15T06:04:10;3.50;;;2.60;;
2728;SDS011;1372;47.956;7.830;2022-11-15T06:06:44;2.37;;;2.17;;
2728;SDS011;1372;47.956;7.830;2022-11-15T06:09:18;3.07;;;2.87;;
2728;SDS011;1372;47.956;7.830;2022-11-15T06:11:51;2.87;;;2.67;;
2728;SDS011;1372;47.956;7.830;2022-11-15T06:14:25;2.37;;;2.17;;
2728;SDS011;1372;47.956;7.830;2022-11-15T06:16:59;3.40;;;3.10;;
2728;SDS011;1372;47.956;7.830;2022-11-15T06:19:37;3.27;;;2.30;;
2728;SDS011;1372;47.956;7.830;2022-11-15T06:22:09;2.93;;;2.50;;
2728;SDS011;1372;47.956;7.830;2022-11-15T06:24:43;3.20;;;2.40;;
2728;SDS011;1372;47.956;7.830;2022-11-15T06:27:15;3.07;;;2.23;;
2728;SDS011;1372;47.956;7.830;2022-11-15T06:29:47;4.97;;;2.70;;
2728;SDS011;1372;47.956;7.830;2022-11-15T06:32:19;3.23;;;2.93;;
2728;SDS011;1372;47.956;7.830;2022-11-15T06:34:52;2.50;;;2.30;;
2728;SDS011;1372;47.956;7.830;2022-11-15T06:37:24;3.00;;;2.70;;
2728;SDS011;1372;47.956;7.830;2022-11-15T06:39:59;4.07;;;2.47;;
2728;SDS011;1372;47.956;7.830;2022-11-15T06:42:34;3.13;;;2.53;;
2728;SDS011;1372;47.956;7.830;2022-11-15T06:45:07;2.00;;;1.90;;
2728;SDS011;1372;47.956;7.830;2022-11-15T06:47:44;3.40;;;1.90;;
2728;SDS011;1372;47.956;7.830;2022-11-15T06:50:16;2.77;;;2.57;;
2728;SDS011;1372;47.956;7.830;2022-11-15T06:52:48;3.63;;;3.30;;
2728;SDS011;1372;47.956;7.830;2022-11-15T06:55:23;4.50;;;3.47;;
2728;SDS011;1372;47.956;7.830;2022-11-15T06:57:56;2.87;;;2.60;;
2728;SDS011;1372;47.956;7.830;2022-11-15T07:00:28;3.87;;;3.13;;
2728;SDS011;1372;47.956;7.830;2022-11-15T07:03:01;3.10;;;2.60;;
2728;SDS011;1372;47.956;7.830;2022-11-15T07:05:35;6.30;;;3.30;;
2728;SDS011;1372;47.956;7.830;2022-11-15T07:08:08;2.77;;;2.57;;
2728;SDS011;1372;47.956;7.830;2022-11-15T07:10:42;3.07;;;2.77;;
2728;SDS011;1372;47.956;7.830;2022-11-15T07:13:15;2.80;;;2.60;;
2728;SDS011;1372;47.956;7.830;2022-11-15T07:15:48;2.70;;;2.50;;
2728;SDS011;1372;47.956;7.830;2022-11-15T07:18:20;2.63;;;2.43;;
2728;SDS011;1372;47.956;7.830;2022-11-15T07:20:52;4.07;;;2.70;;
2728;SDS011;1372;47.956;7.830;2022-11-15T07:23:25;3.10;;;2.80;;
2728;SDS011;1372;47.956;7.830;2022-11-15T07:26:00;3.17;;;2.87;;
2728;SDS011;1372;47.956;7.830;2022-11-15T07:28:33;2.63;;;2.43;;
2728;SDS011;1372;47.956;7.830;2022-11-15T07:31:07;2.80;;;2.20;;
2728;SDS011;1372;47.956;7.830;2022-11-15T07:33:40;3.10;;;2.83;;
2728;SDS011;1372;47.956;7.830;2022-11-15T07:36:13;3.43;;;2.70;;
2728;SDS011;1372;47.956;7.830;2022-11-15T07:38:47;2.93;;;2.73;;
2728;SDS011;1372;47.956;7.830;2022-11-15T07:41:21;2.60;;;2.40;;
2728;SDS011;1372;47.956;7.830;2022-11-15T07:43:55;4.20;;;2.43;;
2728;SDS011;1372;47.956;7.830;2022-11-15T07:46:27;3.73;;;2.90;;
2728;SDS011;1372;47.956;7.830;2022-11-15T07:48:59;2.87;;;2.00;;
2728;SDS011;1372;47.956;7.830;2022-11-15T07:51:32;2.20;;;2.00;;
2728;SDS011;1372;47.956;7.830;2022-11-15T07:54:04;2.70;;;2.30;;
2728;SDS011;1372;47.956;7.830;2022-11-15T07:56:39;2.40;;;2.20;;
2728;SDS011;1372;47.956;7.830;2022-11-15T07:59:12;3.47;;;2.70;;
2728;SDS011;1372;47.956;7.830;2022-11-15T08:01:44;2.80;;;2.60;;
2728;SDS011;1372;47.956;7.830;2022-11-15T08:04:18;2.43;;;2.23;;
2728;SDS011;1372;47.956;7.830;2022-11-15T08:06:50;2.70;;;2.50;;
2728;SDS011;1372;47.956;7.830;2022-11-15T08:09:23;2.50;;;2.20;;
2728;SDS011;1372;47.956;7.830;2022-11-15T08:11:57;2.20;;;2.00;;
2728;SDS011;1372;47.956;7.830;2022-11-15T08:14:30;2.53;;;2.33;;
2728;SDS011;1372;47.956;7.830;2022-11-15T08:17:03;3.20;;;2.90;;
2728;SDS011;1372;47.956;7.830;2022-11-15T08:19:36;2.93;;;2.63;;
2728;SDS011;1372;47.956;7.830;2022-11-15T08:22:08;3.37;;;2.50;;
2728;SDS011;1372;47.956;7.830;2022-11-15T08:24:42;2.43;;;2.23;;
2728;SDS011;1372;47.956;7.830;2022-11-15T08:27:17;3.50;;;2.60;;
2728;SDS011;1372;47.956;7.830;2022-11-15T08:29:49;2.40;;;2.20;;
2728;SDS011;1372;47.956;7.830;2022-11-15T08:32:26;3.10;;;2.60;;
2728;SDS011;1372;47.956;7.830;2022-11-15T08:34:59;3.67;;;3.37;;
2728;SDS011;1372;47.956;7.830;2022-11-15T08:37:31;6.57;;;3.50;;
2728;SDS011;1372;47.956;7.830;2022-11-15T08:40:05;3.73;;;3.43;;
2728;SDS011;1372;47.956;7.830;2022-11-15T08:42:41;3.10;;;2.87;;
2728;SDS011;1372;47.956;7.830;2022-11-15T08:45:21;3.37;;;3.07;;
2728;SDS011;1372;47.956;7.830;2022-11-15T08:47:53;3.83;;;3.27;;
2728;SDS011;1372;47.956;7.830;2022-11-15T08:50:29;3.90;;;3.50;;
2728;SDS011;1372;47.956;7.830;2022-11-15T08:53:04;3.30;;;3.00;;
2728;SDS011;1372;47.956;7.830;2022-11-15T08:55:38;5.20;;;3.70;;
2728;SDS011;1372;47.956;7.830;2022-11-15T08:58:17;5.03;;;3.60;;
2728;SDS011;1372;47.956;7.830;2022-11-15T09:00:53;3.30;;;3.00;;
2728;SDS011;1372;47.956;7.830;2022-11-15T09:03:27;4.40;;;3.77;;
2728;SDS011;1372;47.956;7.830;2022-11-15T09:06:01;4.17;;;3.50;;
2728;SDS011;1372;47.956;7.830;2022-11-15T09:08:33;3.57;;;3.27;;
2728;SDS011;1372;47.956;7.830;2022-11-15T09:11:14;4.20;;;3.70;;
2728;SDS011;1372;47.956;7.830;2022-11-15T09:13:50;3.77;;;3.30;;
2728;SDS011;1372;47.956;7.830;2022-11-15T09:16:23;3.80;;;3.50;;
2728;SDS011;1372;47.956;7.830;2022-11-15T09:18:56;5.67;;;3.63;;
2728;SDS011;1372;47.956;7.830;2022-11-15T09:21:30;5.30;;;3.80;;
2728;SDS011;1372;47.956;7.830;2022-11-15T09:24:06;5.30;;;3.93;;
2728;SDS011;1372;47.956;7.830;2022-11-15T09:26:39;4.80;;;3.87;;
2728;SDS011;1372;47.956;7.830;2022-11-15T09:29:14;5.17;;;4.33;;
2728;SDS011;1372;47.956;7.830;2022-11-15T09:31:47;3.90;;;3.50;;
2728;SDS011;1372;47.956;7.830;2022-11-15T09:34:20;3.93;;;3.53;;
2728;SDS011;1372;47.956;7.830;2022-11-15T09:36:52;6.90;;;3.80;;
2728;SDS011;1372;47.956;7.830;2022-11-15T09:39:25;6.73;;;4.00;;
2728;SDS011;1372;47.956;7.830;2022-11-15T09:42:10;6.80;;;4.43;;
2728;SDS011;1372;47.956;7.830;2022-11-15T09:45:10;5.60;;;4.30;;
2728;SDS011;1372;47.956;7.830;2022-11-15T09:51:03;5.50;;;4.20;;
2728;SDS011;1372;47.956;7.830;2022-11-15T09:53:46;7.30;;;5.10;;
2728;SDS011;1372;47.956;7.830;2022-11-15T09:56:42;11.90;;;5.80;;
2728;SDS011;1372;47.956;7.830;2022-11-15T10:02:29;7.23;;;5.83;;
2728;SDS011;1372;47.956;7.830;2022-11-15T10:05:18;6.20;;;4.60;;
2728;SDS011;1372;47.956;7.830;2022-11-15T10:07:55;8.20;;;5.23;;
2728;SDS011;1372;47.956;7.830;2022-11-15T10:10:37;5.70;;;4.80;;
2728;SDS011;1372;47.956;7.830;2022-11-15T10:13:13;6.20;;;5.17;;
2728;SDS011;1372;47.956;7.830;2022-11-15T10:15:49;6.33;;;5.40;;
2728;SDS011;1372;47.956;7.830;2022-11-15T10:18:28;6.43;;;4.97;;
2728;SDS011;1372;47.956;7.830;2022-11-15T10:21:09;5.13;;;4.27;;
2728;SDS011;1372;47.956;7.830;2022-11-15T10:23:48;5.37;;;3.73;;
2728;SDS011;1372;47.956;7.830;2022-11-15T10:26:23;4.17;;;3.37;;
2728;SDS011;1372;47.956;7.830;2022-11-15T10:28:56;4.00;;;3.57;;
2728;SDS011;1372;47.956;7.830;2022-11-15T10:31:29;4.00;;;3.40;;
2728;SDS011;1372;47.956;7.830;2022-11-15T10:34:09;5.70;;;4.37;;
2728;SDS011;1372;47.956;7.830;2022-11-15T10:36:47;8.33;;;4.73;;
2728;SDS011;1372;47.956;7.830;2022-11-15T10:39:27;6.87;;;5.40;;
2728;SDS011;1372;47.956;7.830;2022-11-15T10:42:14;5.73;;;5.13;;
2728;SDS011;1372;47.956;7.830;2022-11-15T10:44:49;6.67;;;5.30;;
2728;SDS011;1372;47.956;7.830;2022-11-15T10:47:23;9.50;;;7.70;;
2728;SDS011;1372;47.956;7.830;2022-11-15T10:50:27;10.40;;;7.90;;
2728;SDS011;1372;47.956;7.830;2022-11-15T10:53:02;5.67;;;5.03;;
2728;SDS011;1372;47.956;7.830;2022-11-15T10:55:40;4.97;;;4.40;;
2728;SDS011;1372;47.956;7.830;2022-11-15T10:58:22;4.97;;;4.47;;
2728;SDS011;1372;47.956;7.830;2022-11-15T11:01:11;4.70;;;4.07;;
2728;SDS011;1372;47.956;7.830;2022-11-15T11:03:57;4.30;;;3.80;;
2728;SDS011;1372;47.956;7.830;2022-11-15T11:06:45;4.23;;;3.40;;
2728;SDS011;1372;47.956;7.830;2022-11-15T11:09:30;4.53;;;4.13;;
2728;SDS011;1372;47.956;7.830;2022-11-15T11:12:08;5.03;;;4.50;;
2728;SDS011;1372;47.956;7.830;2022-11-15T11:14:43;4.77;;;4.27;;
2728;SDS011;1372;47.956;7.830;2022-11-15T11:17:16;4.97;;;4.00;;
2728;SDS011;1372;47.956;7.830;2022-11-15T11:20:00;5.43;;;4.77;;
2728;SDS011;1372;47.956;7.830;2022-11-15T11:22:46;5.20;;;4.23;;
2728;SDS011;1372;47.956;7.830;2022-11-15T11:25:35;10.87;;;6.27;;
2728;SDS011;1372;47.956;7.830;2022-11-15T11:28:30;7.80;;;6.90;;
2728;SDS011;1372;47.956;7.830;2022-11-15T11:31:15;7.90;;;6.63;;
2728;SDS011;1372;47.956;7.830;2022-11-15T11:33:57;9.30;;;7.40;;
2728;SDS011;1372;47.956;7.830;2022-11-15T11:36:45;8.10;;;7.30;;
2728;SDS011;1372;47.956;7.830;2022-11-15T11:39:31;8.63;;;6.90;;
2728;SDS011;1372;47.956;7.830;2022-11-15T11:42:17;7.43;;;5.80;;
2728;SDS011;1372;47.956;7.830;2022-11-15T11:45:02;7.23;;;6.50;;
2728;SDS011;1372;47.956;7.830;2022-11-15T11:47:47;7.20;;;5.87;;
2728;SDS011;1372;47.956;7.830;2022-11-15T11:50:25;9.07;;;7.03;;
2728;SDS011;1372;47.956;7.830;2022-11-15T11:52:59;10.73;;;6.93;;
2728;SDS011;1372;47.956;7.830;2022-11-15T11:55:42;8.80;;;7.50;;
2728;SDS011;1372;47.956;7.830;2022-11-15T11:58:19;7.97;;;7.23;;
2728;SDS011;1372;47.956;7.830;2022-11-15T12:01:15;8.80;;;7.83;;
2728;SDS011;1372;47.956;7.830;2022-11-15T12:03:54;10.37;;;8.43;;
2728;SDS011;1372;47.956;7.830;2022-11-15T12:06:33;9.97;;;8.87;;
2728;SDS011;1372;47.956;7.830;2022-11-15T12:09:13;9.30;;;8.50;;
2728;SDS011;1372;47.956;7.830;2022-11-15T12:11:55;7.97;;;7.17;;
2728;SDS011;1372;47.956;7.830;2022-11-15T12:14:36;11.80;;;8.77;;
2728;SDS011;1372;47.956;7.830;2022-11-15T12:17:16;9.20;;;6.37;;
2728;SDS011;1372;47.956;7.830;2022-11-15T12:19:55;3.93;;;3.53;;
2728;SDS011;1372;47.956;7.830;2022-11-15T12:22:34;4.13;;;3.60;;
2728;SDS011;1372;47.956;7.830;2022-11-15T12:25:16;4.53;;;3.27;;
2728;SDS011;1372;47.956;7.830;2022-11-15T12:27:54;5.10;;;3.30;;
2728;SDS011;1372;47.956;7.830;2022-11-15T12:30:39;4.00;;;3.57;;
2728;SDS011;1372;47.956;7.830;2022-11-15T12:33:29;6.50;;;4.00;;
2728;SDS011;1372;47.956;7.830;2022-11-15T12:36:05;4.87;;;4.23;;
2728;SDS011;1372;47.956;7.830;2022-11-15T12:38:52;5.70;;;4.40;;
2728;SDS011;1372;47.956;7.830;2022-11-15T12:41:28;4.93;;;4.33;;
2728;SDS011;1372;47.956;7.830;2022-11-15T12:44:09;5.07;;;4.67;;
2728;SDS011;1372;47.956;7.830;2022-11-15T12:47:00;8.10;;;5.10;;
2728;SDS011;1372;47.956;7.830;2022-11-15T12:49:49;8.00;;;6.13;;
2728;SDS011;1372;47.956;7.830;2022-11-15T12:52:22;7.10;;;4.87;;
2728;SDS011;1372;47.956;7.830;2022-11-15T12:55:00;6.67;;;4.63;;
2728;SDS011;1372;47.956;7.830;2022-11-15T13:01:00;4.17;;;3.70;;
2728;SDS011;1372;47.956;7.830;2022-11-15T13:03:33;5.40;;;4.90;;
2728;SDS011;1372;47.956;7.830;2022-11-15T13:06:07;6.23;;;5.20;;
2728;SDS011;1372;47.956;7.830;2022-11-15T13:15:34;5.87;;;5.27;;
2728;SDS011;1372;47.956;7.830;2022-11-15T13:18:28;5.77;;;4.50;;
2728;SDS011;1372;47.956;7.830;2022-11-15T13:21:05;5.07;;;4.57;;
2728;SDS011;1372;47.956;7.830;2022-11-15T13:24:10;6.53;;;5.30;;
2728;SDS011;1372;47.956;7.830;2022-11-15T13:26:46;5.07;;;4.57;;
2728;SDS011;1372;47.956;7.830;2022-11-15T13:29:20;5.13;;;3.50;;
2728;SDS011;1372;47.956;7.830;2022-11-15T13:31:53;3.27;;;2.83;;
2728;SDS011;1372;47.956;7.830;2022-11-15T13:34:28;3.97;;;2.90;;
2728;SDS011;1372;47.956;7.830;2022-11-15T13:37:28;4.20;;;2.77;;
2728;SDS011;1372;47.956;7.830;2022-11-15T13:40:16;3.10;;;2.43;;
2728;SDS011;1372;47.956;7.830;2022-11-15T13:42:55;3.70;;;3.20;;
2728;SDS011;1372;47.956;7.830;2022-11-15T13:45:30;4.93;;;3.90;;
2728;SDS011;1372;47.956;7.830;2022-11-15T13:48:02;5.00;;;4.60;;
2728;SDS011;1372;47.956;7.830;2022-11-15T13:50:38;4.60;;;4.20;;
2728;SDS011;1372;47.956;7.830;2022-11-15T13:53:11;5.50;;;4.40;;
2728;SDS011;1372;47.956;7.830;2022-11-15T13:55:43;5.40;;;4.20;;
2728;SDS011;1372;47.956;7.830;2022-11-15T13:58:16;4.90;;;4.40;;
2728;SDS011;1372;47.956;7.830;2022-11-15T14:00:57;4.60;;;4.00;;
2728;SDS011;1372;47.956;7.830;2022-11-15T14:03:38;4.33;;;3.93;;
2728;SDS011;1372;47.956;7.830;2022-11-15T14:06:20;5.87;;;3.90;;
2728;SDS011;1372;47.956;7.830;2022-11-15T14:12:23;3.10;;;1.90;;
2728;SDS011;1372;47.956;7.830;2022-11-15T14:15:01;1.90;;;1.77;;
2728;SDS011;1372;47.956;7.830;2022-11-15T14:17:54;2.53;;;2.17;;
2728;SDS011;1372;47.956;7.830;2022-11-15T14:20:27;3.50;;;2.90;;
2728;SDS011;1372;47.956;7.830;2022-11-15T14:23:04;3.47;;;2.90;;
2728;SDS011;1372;47.956;7.830;2022-11-15T14:25:52;2.70;;;2.50;;
2728;SDS011;1372;47.956;7.830;2022-11-15T14:28:29;2.83;;;2.63;;
2728;SDS011;1372;47.956;7.830;2022-11-15T14:31:09;3.47;;;2.60;;
2728;SDS011;1372;47.956;7.830;2022-11-15T14:33:45;5.00;;;2.70;;
2728;SDS011;1372;47.956;7.830;2022-11-15T14:36:19;8.83;;;7.03;;
2728;SDS011;1372;47.956;7.830;2022-11-15T14:38:53;10.43;;;6.80;;
2728;SDS011;1372;47.956;7.830;2022-11-15T14:41:26;7.70;;;5.67;;
2728;SDS011;1372;47.956;7.830;2022-11-15T14:44:01;4.60;;;3.23;;
2728;SDS011;1372;47.956;7.830;2022-11-15T14:46:35;2.30;;;2.10;;
2728;SDS011;1372;47.956;7.830;2022-11-15T14:49:07;3.20;;;2.40;;
2728;SDS011;1372;47.956;7.830;2022-11-15T14:51:44;2.63;;;2.30;;
2728;SDS011;1372;47.956;7.830;2022-11-15T14:54:19;2.43;;;2.27;;
2728;SDS011;1372;47.956;7.830;2022-11-15T14:56:52;3.20;;;2.90;;
2728;SDS011;1372;47.956;7.830;2022-11-15T14:59:24;5.47;;;3.70;;
2728;SDS011;1372;47.956;7.830;2022-11-15T15:01:59;3.90;;;3.43;;
2728;SDS011;1372;47.956;7.830;2022-11-15T15:04:32;4.50;;;3.43;;
2728;SDS011;1372;47.956;7.830;2022-11-15T15:07:04;6.20;;;3.50;;
2728;SDS011;1372;47.956;7.830;2022-11-15T15:09:40;3.20;;;3.00;;
2728;SDS011;1372;47.956;7.830;2022-11-15T15:12:17;6.77;;;5.03;;
2728;SDS011;1372;47.956;7.830;2022-11-15T15:14:52;8.07;;;4.50;;
2728;SDS011;1372;47.956;7.830;2022-11-15T15:17:25;4.90;;;4.40;;
2728;SDS011;1372;47.956;7.830;2022-11-15T15:19:58;7.93;;;6.03;;
2728;SDS011;1372;47.956;7.830;2022-11-15T15:22:30;8.90;;;6.53;;
2728;SDS011;1372;47.956;7.830;2022-11-15T15:25:07;8.30;;;6.00;;
2728;SDS011;1372;47.956;7.830;2022-11-15T15:28:04;5.93;;;4.63;;
2728;SDS011;1372;47.956;7.830;2022-11-15T15:30:36;5.53;;;5.00;;
2728;SDS011;1372;47.956;7.830;2022-11-15T15:33:06;8.23;;;4.23;;
2728;SDS011;1372;47.956;7.830;2022-11-15T15:35:37;5.90;;;4.50;;
2728;SDS011;1372;47.956;7.830;2022-11-15T15:38:12;6.80;;;4.33;;
2728;SDS011;1372;47.956;7.830;2022-11-15T15:40:45;8.63;;;7.13;;
2728;SDS011;1372;47.956;7.830;2022-11-15T15:43:18;6.73;;;5.90;;
2728;SDS011;1372;47.956;7.830;2022-11-15T15:45:50;7.17;;;6.43;;
2728;SDS011;1372;47.956;7.830;2022-11-15T15:48:20;8.30;;;7.50;;
2728;SDS011;1372;47.956;7.830;2022-11-15T15:50:49;8.53;;;7.20;;
2728;SDS011;1372;47.956;7.830;2022-11-15T15:53:20;9.30;;;6.83;;
2728;SDS011;1372;47.956;7.830;2022-11-15T15:55:51;7.53;;;5.80;;
2728;SDS011;1372;47.956;7.830;2022-11-15T15:58:22;7.53;;;6.70;;
2728;SDS011;1372;47.956;7.830;2022-11-15T16:00:51;10.30;;;9.20;;
2728;SDS011;1372;47.956;7.830;2022-11-15T16:03:21;10.10;;;8.27;;
2728;SDS011;1372;47.956;7.830;2022-11-15T16:05:51;11.50;;;8.30;;
2728;SDS011;1372;47.956;7.830;2022-11-15T16:08:23;9.40;;;7.50;;
2728;SDS011;1372;47.956;7.830;2022-11-15T16:11:10;7.57;;;6.67;;
2728;SDS011;1372;47.956;7.830;2022-11-15T16:13:42;8.27;;;6.00;;
2728;SDS011;1372;47.956;7.830;2022-11-15T16:16:13;6.30;;;5.70;;
2728;SDS011;1372;47.956;7.830;2022-11-15T16:18:43;7.60;;;5.50;;
2728;SDS011;1372;47.956;7.830;2022-11-15T16:21:16;7.80;;;5.30;;
2728;SDS011;1372;47.956;7.830;2022-11-15T16:23:47;7.63;;;6.03;;
2728;SDS011;1372;47.956;7.830;2022-11-15T16:26:20;9.10;;;6.60;;
2728;SDS011;1372;47.956;7.830;2022-11-15T16:28:53;9.17;;;7.27;;
2728;SDS011;1372;47.956;7.830;2022-11-15T16:31:26;10.10;;;8.00;;
2728;SDS011;1372;47.956;7.830;2022-11-15T16:33:59;8.20;;;6.53;;
2728;SDS011;1372;47.956;7.830;2022-11-15T16:36:32;7.73;;;6.70;;
2728;SDS011;1372;47.956;7.830;2022-11-15T16:39:05;7.70;;;6.07;;